Terminal Aerodrome Forecast
Issued by NWS Duluth, MN

Home | Current Version | Previous Version | Text Only | Print | Product List | Glossary On
Versions: 1 2 3 4 5 6 7 8 9 10 11 12 13 14 15 16 17 18
000
FTUS43 KDLH 240524
TAFDLH
TAF
KDLH 240524Z 2406/2506 34006KT P6SM BKN200
     FM241200 01011KT P6SM BKN060
     FM241500 36011G16KT P6SM SCT040 BKN060
     FM241800 33012G17KT P6SM SCT040
     FM250100 04006KT P6SM FEW040=

USA.gov is the U.S. government's official web portal to all federal, state and local government web resources and services.